Time,TemperatureF,DewpointF,PressureIn,WindDirection,WindDirectionDegrees,WindSpeedMPH,WindSpeedGustMPH,Humidity,HourlyPrecipIn,Conditions,Clouds,dailyrainin,SolarRadiationWatts/m^2,SoftwareType,DateUTC
2013-08-13 00:12:00,64.0,52.0,-100.00,NW,312,8.0,9.0,65,0.00,,,0.00,0.000000,,2013-08-13 07:12:00,
2013-08-13 00:21:00,64.0,52.0,-100.00,NW,312,8.0,9.0,65,0.00,,,0.00,0.000000,,2013-08-13 07:21:00,
2013-08-13 00:33:00,64.0,52.0,-100.00,NW,312,8.0,9.0,65,0.00,,,0.00,0.000000,,2013-08-13 07:33:00,
2013-08-13 00:42:00,64.0,52.0,-100.00,NW,312,8.0,9.0,65,0.00,,,0.00,0.000000,,2013-08-13 07:42:00,
2013-08-13 01:11:00,61.0,50.0,-100.00,NNW,332,5.0,8.0,68,0.00,,,0.00,0.000000,,2013-08-13 08:11:00,
2013-08-13 01:21:00,61.0,50.0,-100.00,NNW,332,5.0,8.0,68,0.00,,,0.00,0.000000,,2013-08-13 08:21:00,
2013-08-13 01:31:00,61.0,50.0,-100.00,NNW,332,5.0,8.0,68,0.00,,,0.00,0.000000,,2013-08-13 08:31:00,
2013-08-13 01:42:00,61.0,50.0,-100.00,NNW,332,5.0,8.0,68,0.00,,,0.00,0.000000,,2013-08-13 08:42:00,
2013-08-13 02:11:00,60.0,50.0,-100.00,NNW,339,5.0,8.0,70,0.00,,,0.00,0.000000,,2013-08-13 09:11:00,
2013-08-13 02:21:00,60.0,50.0,-100.00,NNW,339,5.0,8.0,70,0.00,,,0.00,0.000000,,2013-08-13 09:21:00,
2013-08-13 02:32:00,60.0,50.0,-100.00,NNW,339,5.0,8.0,70,0.00,,,0.00,0.000000,,2013-08-13 09:32:00,
2013-08-13 02:43:00,60.0,50.0,-100.00,NNW,339,5.0,8.0,70,0.00,,,0.00,0.000000,,2013-08-13 09:43:00,
2013-08-13 03:12:00,61.0,52.0,-100.00,NW,325,5.0,8.0,71,0.00,,,0.00,0.000000,,2013-08-13 10:12:00,
2013-08-13 03:23:00,61.0,52.0,-100.00,NW,325,5.0,8.0,71,0.00,,,0.00,0.000000,,2013-08-13 10:23:00,
2013-08-13 03:32:00,61.0,52.0,-100.00,NW,325,5.0,8.0,71,0.00,,,0.00,0.000000,,2013-08-13 10:32:00,
2013-08-13 03:42:00,61.0,52.0,-100.00,NW,325,5.0,8.0,71,0.00,,,0.00,0.000000,,2013-08-13 10:42:00,
2013-08-13 04:11:00,58.0,50.0,-100.00,NNW,329,6.0,7.0,75,0.00,,,0.00,0.000000,,2013-08-13 11:11:00,
2013-08-13 04:22:00,58.0,50.0,-100.00,NNW,329,6.0,7.0,75,0.00,,,0.00,0.000000,,2013-08-13 11:22:00,
2013-08-13 04:31:00,58.0,50.0,-100.00,NNW,329,6.0,7.0,75,0.00,,,0.00,0.000000,,2013-08-13 11:31:00,
2013-08-13 04:42:00,58.0,50.0,-100.00,NNW,329,6.0,7.0,75,0.00,,,0.00,0.000000,,2013-08-13 11:42:00,
2013-08-13 05:21:00,59.0,51.0,-100.00,NNW,337,6.0,9.0,76,0.00,,,0.00,0.000000,,2013-08-13 12:21:00,
2013-08-13 05:31:00,59.0,51.0,-100.00,NNW,337,6.0,9.0,76,0.00,,,0.00,0.000000,,2013-08-13 12:31:00,
2013-08-13 05:41:00,59.0,51.0,-100.00,NNW,337,6.0,9.0,76,0.00,,,0.00,0.000000,,2013-08-13 12:41:00,
2013-08-13 06:11:00,57.0,51.0,-100.00,NNW,343,6.0,9.0,79,0.00,,,0.00,0.000000,,2013-08-13 13:11:00,
2013-08-13 06:21:00,57.0,51.0,-100.00,NNW,343,6.0,9.0,79,0.00,,,0.00,0.000000,,2013-08-13 13:21:00,
2013-08-13 06:32:00,57.0,51.0,-100.00,NNW,343,6.0,9.0,79,0.00,,,0.00,0.000000,,2013-08-13 13:32:00,
2013-08-13 06:41:00,57.0,51.0,-100.00,NNW,343,6.0,9.0,79,0.00,,,0.00,0.000000,,2013-08-13 13:41:00,
2013-08-13 07:11:00,60.0,52.0,-100.00,NW,315,7.0,9.0,76,0.00,,,0.00,0.000000,,2013-08-13 14:11:00,
2013-08-13 07:21:00,60.0,52.0,-100.00,NW,315,7.0,9.0,76,0.00,,,0.00,0.000000,,2013-08-13 14:21:00,
2013-08-13 07:31:00,60.0,52.0,-100.00,NW,315,7.0,9.0,76,0.00,,,0.00,0.000000,,2013-08-13 14:31:00,
2013-08-13 07:42:00,60.0,52.0,-100.00,NW,315,7.0,9.0,76,0.00,,,0.00,0.000000,,2013-08-13 14:42:00,
2013-08-13 08:11:00,65.0,53.0,-100.00,NW,315,3.0,9.0,66,0.00,,,0.00,23.000000,,2013-08-13 15:11:00,
2013-08-13 08:21:00,65.0,53.0,-100.00,NW,315,3.0,9.0,66,0.00,,,0.00,23.000000,,2013-08-13 15:21:00,
2013-08-13 08:35:00,65.0,53.0,-100.00,NW,315,3.0,9.0,66,0.00,,,0.00,23.000000,,2013-08-13 15:35:00,
2013-08-13 08:44:00,65.0,53.0,-100.00,NW,315,3.0,9.0,66,0.00,,,0.00,23.000000,,2013-08-13 15:44:00,
2013-08-13 09:44:00,73.0,54.0,-100.00,NNW,330,1.0,5.0,52,0.00,,,0.00,163.000000,,2013-08-13 16:44:00,
2013-08-13 10:45:00,-999.0,-99.9,-100.00,East,87,0.0,8.0,38,0.00,,,0.00,319.000000,,2013-08-13 17:45:00,
2013-08-13 11:44:00,82.0,52.0,-100.00,SSE,165,3.0,7.0,35,-99.99,,,0.00,461.000000,,2013-08-13 18:44:00,
2013-08-13 12:14:00,82.0,48.0,-100.00,SSE,150,6.0,11.0,31,0.00,,,0.00,562.000000,,2013-08-13 19:14:00,
2013-08-13 12:24:00,82.0,48.0,-100.00,SSE,150,6.0,11.0,31,0.00,,,0.00,562.000000,,2013-08-13 19:24:00,
2013-08-13 12:36:00,82.0,48.0,-100.00,SSE,150,6.0,11.0,31,0.00,,,0.00,562.000000,,2013-08-13 19:36:00,
2013-08-13 12:44:00,82.0,48.0,-100.00,SSE,150,6.0,11.0,31,0.00,,,0.00,562.000000,,2013-08-13 19:44:00,
2013-08-13 13:15:00,84.0,46.0,-100.00,SSE,164,6.0,11.0,27,0.00,,,0.00,593.000000,,2013-08-13 20:15:00,
2013-08-13 13:22:00,84.0,46.0,-100.00,SSE,164,6.0,11.0,27,0.00,,,0.00,593.000000,,2013-08-13 20:22:00,
2013-08-13 13:32:00,84.0,46.0,-100.00,SSE,164,6.0,11.0,27,0.00,,,0.00,593.000000,,2013-08-13 20:32:00,
2013-08-13 13:45:00,84.0,46.0,-100.00,SSE,164,6.0,11.0,27,0.00,,,0.00,593.000000,,2013-08-13 20:45:00,
2013-08-13 14:24:00,88.0,51.0,-100.00,South,185,5.0,14.0,28,0.00,,,0.00,592.000000,,2013-08-13 21:24:00,
2013-08-13 14:34:00,88.0,51.0,-100.00,South,185,5.0,14.0,28,0.00,,,0.00,592.000000,,2013-08-13 21:34:00,
2013-08-13 14:46:00,88.0,51.0,-100.00,South,185,5.0,14.0,28,0.00,,,0.00,592.000000,,2013-08-13 21:46:00,
2013-08-13 14:48:00,88.0,46.0,-100.00,SSW,192,7.0,15.0,23,0.00,,,0.00,593.000000,,2013-08-13 21:48:00,
2013-08-13 15:13:00,88.0,46.0,-100.00,SSW,192,7.0,15.0,23,0.00,,,0.00,593.000000,,2013-08-13 22:13:00,
2013-08-13 15:22:00,88.0,46.0,-100.00,SSW,192,7.0,15.0,23,0.00,,,0.00,593.000000,,2013-08-13 22:22:00,
2013-08-13 15:35:00,88.0,46.0,-100.00,SSW,192,7.0,15.0,23,0.00,,,0.00,593.000000,,2013-08-13 22:35:00,
2013-08-13 16:13:00,88.0,42.0,-100.00,South,184,7.0,15.0,20,0.00,,,0.00,484.000000,,2013-08-13 23:13:00,
2013-08-13 16:26:00,88.0,42.0,-100.00,South,184,7.0,15.0,20,0.00,,,0.00,484.000000,,2013-08-13 23:26:00,
2013-08-13 16:35:00,88.0,42.0,-100.00,South,184,7.0,15.0,20,0.00,,,0.00,484.000000,,2013-08-13 23:35:00,
2013-08-13 16:46:00,88.0,42.0,-100.00,South,184,7.0,15.0,20,0.00,,,0.00,484.000000,,2013-08-13 23:46:00,
2013-08-13 17:11:00,87.0,44.0,-100.00,South,173,8.0,15.0,22,0.00,,,0.00,332.000000,,2013-08-14 00:11:00,
2013-08-13 17:21:00,87.0,44.0,-100.00,South,173,8.0,15.0,22,0.00,,,0.00,332.000000,,2013-08-14 00:21:00,
2013-08-13 17:31:00,87.0,44.0,-100.00,South,173,8.0,15.0,22,0.00,,,0.00,332.000000,,2013-08-14 00:31:00,
2013-08-13 17:41:00,87.0,44.0,-100.00,South,173,8.0,15.0,22,0.00,,,0.00,332.000000,,2013-08-14 00:41:00,
2013-08-13 18:21:00,87.0,42.0,-100.00,South,179,4.0,14.0,21,0.00,,,0.00,176.000000,,2013-08-14 01:21:00,
2013-08-13 18:32:00,87.0,42.0,-100.00,South,179,4.0,14.0,21,0.00,,,0.00,176.000000,,2013-08-14 01:32:00,
2013-08-13 18:42:00,87.0,42.0,-100.00,South,179,4.0,14.0,21,0.00,,,0.00,176.000000,,2013-08-14 01:42:00,
2013-08-13 19:11:00,85.0,44.0,-100.00,SSW,203,5.0,13.0,24,0.00,,,0.00,3.000000,,2013-08-14 02:11:00,
2013-08-13 19:21:00,85.0,44.0,-100.00,SSW,203,5.0,13.0,24,0.00,,,0.00,3.000000,,2013-08-14 02:21:00,
2013-08-13 19:32:00,85.0,44.0,-100.00,SSW,203,5.0,13.0,24,0.00,,,0.00,3.000000,,2013-08-14 02:32:00,
2013-08-13 19:41:00,85.0,44.0,-100.00,SSW,203,5.0,13.0,24,0.00,,,0.00,3.000000,,2013-08-14 02:41:00,
2013-08-13 20:11:00,79.0,47.0,-100.00,South,172,4.0,6.0,32,0.00,,,0.00,0.000000,,2013-08-14 03:11:00,
2013-08-13 20:22:00,79.0,47.0,-100.00,South,172,4.0,6.0,32,0.00,,,0.00,0.000000,,2013-08-14 03:22:00,
2013-08-13 20:33:00,79.0,47.0,-100.00,South,172,4.0,6.0,32,0.00,,,0.00,0.000000,,2013-08-14 03:33:00,
2013-08-13 20:43:00,79.0,47.0,-100.00,South,172,4.0,6.0,32,0.00,,,0.00,0.000000,,2013-08-14 03:43:00,
2013-08-13 21:12:00,72.0,46.0,-100.00,SSE,150,4.0,6.0,40,0.00,,,0.00,0.000000,,2013-08-14 04:12:00,
2013-08-13 21:23:00,72.0,46.0,-100.00,SSE,150,4.0,6.0,40,0.00,,,0.00,0.000000,,2013-08-14 04:23:00,
2013-08-13 21:32:00,72.0,46.0,-100.00,SSE,150,4.0,6.0,40,0.00,,,0.00,0.000000,,2013-08-14 04:32:00,
2013-08-13 21:42:00,72.0,46.0,-100.00,SSE,150,4.0,6.0,40,0.00,,,0.00,0.000000,,2013-08-14 04:42:00,
2013-08-13 22:12:00,70.0,47.0,-100.00,SE,124,0.0,6.0,44,0.00,,,0.00,0.000000,,2013-08-14 05:12:00,
2013-08-13 22:22:00,70.0,47.0,-100.00,SE,124,0.0,6.0,44,0.00,,,0.00,0.000000,,2013-08-14 05:22:00,
2013-08-13 22:31:00,70.0,47.0,-100.00,SE,124,0.0,6.0,44,0.00,,,0.00,0.000000,,2013-08-14 05:31:00,
2013-08-13 22:42:00,70.0,47.0,-100.00,SE,124,0.0,6.0,44,0.00,,,0.00,0.000000,,2013-08-14 05:42:00,
2013-08-13 23:11:00,69.0,42.0,-100.00,West,267,0.0,4.0,37,0.00,,,0.00,0.000000,,2013-08-14 06:11:00,
2013-08-13 23:21:00,69.0,42.0,-100.00,West,267,0.0,4.0,37,0.00,,,0.00,0.000000,,2013-08-14 06:21:00,
2013-08-13 23:31:00,69.0,42.0,-100.00,West,267,0.0,4.0,37,0.00,,,0.00,0.000000,,2013-08-14 06:31:00,
2013-08-13 23:42:00,69.0,42.0,-100.00,West,267,0.0,4.0,37,0.00,,,0.00,0.000000,,2013-08-14 06:42:00,